createdAt,value
2016-11-12T00:00:55.231Z,0
2016-11-12T00:01:55.276Z,0
2016-11-12T00:02:55.553Z,0
2016-11-12T00:03:55.391Z,0
2016-11-12T00:04:55.429Z,0
2016-11-12T00:05:55.500Z,0
2016-11-12T00:06:55.565Z,0
2016-11-12T00:07:55.627Z,0
2016-11-12T00:08:55.673Z,0
2016-11-12T00:09:55.714Z,0
2016-11-12T00:10:55.795Z,0
2016-11-12T00:11:55.857Z,0
2016-11-12T00:12:55.898Z,0
2016-11-12T00:13:55.955Z,0
2016-11-12T00:14:56.000Z,0
2016-11-12T00:15:56.064Z,0
2016-11-12T00:16:56.104Z,0
2016-11-12T00:17:56.215Z,0
2016-11-12T00:18:56.260Z,0
2016-11-12T00:19:56.290Z,0
2016-11-12T00:20:56.344Z,0
2016-11-12T00:21:56.401Z,0
2016-11-12T00:22:56.463Z,0
2016-11-12T00:23:56.539Z,0
2016-11-12T00:24:56.568Z,0
2016-11-12T00:25:56.628Z,0
2016-11-12T00:26:56.683Z,0
2016-11-12T00:27:56.753Z,0
2016-11-12T00:28:56.817Z,0
2016-11-12T00:29:56.853Z,0
2016-11-12T00:30:56.918Z,0
2016-11-12T00:31:56.968Z,0
2016-11-12T00:32:57.044Z,0
2016-11-12T00:33:57.087Z,0
2016-11-12T00:34:57.140Z,0
2016-11-12T00:35:57.203Z,0
2016-11-12T00:36:57.261Z,0
2016-11-12T00:37:57.302Z,0
2016-11-12T00:38:57.373Z,0
2016-11-12T00:39:57.427Z,0
2016-11-12T00:40:57.476Z,0
2016-11-12T00:41:57.505Z,0
2016-11-12T00:42:57.574Z,0
2016-11-12T00:43:57.618Z,0
2016-11-12T00:44:57.687Z,0
2016-11-12T00:45:57.770Z,0
2016-11-12T00:46:57.828Z,0
2016-11-12T00:47:57.865Z,0
2016-11-12T00:48:57.943Z,0
2016-11-12T00:49:57.982Z,0
2016-11-12T00:50:58.033Z,0
2016-11-12T00:51:58.104Z,0
2016-11-12T00:52:58.138Z,0
2016-11-12T00:53:58.199Z,0
2016-11-12T00:54:58.256Z,0
2016-11-12T00:55:58.307Z,0
2016-11-12T00:56:58.373Z,0
2016-11-12T00:57:58.431Z,0
2016-11-12T00:58:58.494Z,0
2016-11-12T00:59:58.553Z,0
2016-11-12T01:00:58.597Z,0
2016-11-12T01:01:58.677Z,0
2016-11-12T01:02:58.704Z,0
2016-11-12T01:03:58.755Z,0
2016-11-12T01:04:58.836Z,0
2016-11-12T01:05:58.891Z,0
2016-11-12T01:06:58.940Z,0
2016-11-12T01:07:58.975Z,0
2016-11-12T01:08:59.054Z,0
2016-11-12T01:09:59.097Z,0
2016-11-12T01:10:59.152Z,0
2016-11-12T01:11:59.192Z,0
2016-11-12T01:12:59.294Z,0
2016-11-12T01:13:59.652Z,0
2016-11-12T01:14:59.370Z,0
2016-11-12T01:15:59.441Z,0
2016-11-12T01:16:59.504Z,0
2016-11-12T01:17:59.551Z,0
2016-11-12T01:18:59.605Z,0
2016-11-12T01:19:59.666Z,0
2016-11-12T01:20:59.713Z,0
2016-11-12T01:21:59.788Z,0
2016-11-12T01:22:59.875Z,0
2016-11-12T01:23:59.883Z,0
2016-11-12T01:24:59.942Z,0
2016-11-12T01:26:00.027Z,0
2016-11-12T01:27:00.052Z,0
2016-11-12T01:28:00.093Z,0
2016-11-12T01:29:00.170Z,0
2016-11-12T01:30:00.220Z,0
2016-11-12T01:31:00.258Z,0
2016-11-12T01:32:00.377Z,0
2016-11-12T01:33:00.413Z,0
2016-11-12T01:34:00.458Z,0
2016-11-12T01:35:00.499Z,0
2016-11-12T01:36:00.575Z,0
2016-11-12T01:37:00.613Z,0
2016-11-12T01:38:00.684Z,0
2016-11-12T01:39:00.731Z,0
2016-11-12T01:40:00.775Z,0
2016-11-12T01:41:00.842Z,0
2016-11-12T01:42:00.918Z,0
2016-11-12T01:43:00.966Z,0
2016-11-12T01:44:01.022Z,0
2016-11-12T01:45:01.075Z,0
2016-11-12T01:46:01.150Z,0
2016-11-12T01:47:01.207Z,0
2016-11-12T01:48:01.240Z,0
2016-11-12T01:49:01.295Z,0
2016-11-12T01:50:01.363Z,0
2016-11-12T01:51:01.465Z,0
2016-11-12T01:52:01.459Z,0
2016-11-12T01:53:01.527Z,0
2016-11-12T01:54:01.565Z,0
2016-11-12T01:55:01.630Z,0
2016-11-12T01:56:01.700Z,0
2016-11-12T01:57:01.726Z,0
2016-11-12T01:58:01.783Z,0
2016-11-12T01:59:01.853Z,0
2016-11-12T02:00:01.910Z,0
2016-11-12T02:01:01.948Z,0
2016-11-12T02:02:02.017Z,0
2016-11-12T02:03:02.078Z,0
2016-11-12T02:04:02.120Z,0
2016-11-12T02:05:02.208Z,0
2016-11-12T02:06:02.547Z,0
2016-11-12T02:07:02.324Z,0
2016-11-12T02:08:02.382Z,0
2016-11-12T02:09:02.736Z,0
2016-11-12T02:10:02.463Z,0
2016-11-12T02:11:02.525Z,0
2016-11-12T02:12:02.578Z,0
2016-11-12T02:13:02.637Z,0
2016-11-12T02:14:02.692Z,0
2016-11-12T02:15:02.777Z,0
2016-11-12T02:16:02.795Z,0
2016-11-12T02:17:02.883Z,0
2016-11-12T02:18:02.910Z,0
2016-11-12T02:19:03.007Z,0
2016-11-12T02:20:03.050Z,0
2016-11-12T02:21:03.070Z,0
2016-11-12T02:22:03.201Z,0
2016-11-12T02:23:03.197Z,0
2016-11-12T02:24:03.551Z,0
2016-11-12T02:25:03.312Z,0
2016-11-12T02:26:03.371Z,0
2016-11-12T02:27:03.409Z,0
2016-11-12T02:28:03.507Z,0
2016-11-12T02:29:03.525Z,0
2016-11-12T02:30:03.591Z,0
2016-11-12T02:31:03.674Z,0
2016-11-12T02:32:03.700Z,0
2016-11-12T02:33:03.748Z,0
2016-11-12T02:34:03.832Z,0
2016-11-12T02:35:03.896Z,0
2016-11-12T02:36:03.937Z,0
2016-11-12T02:37:03.972Z,0
2016-11-12T02:38:04.028Z,0
2016-11-12T02:39:04.111Z,0
2016-11-12T02:40:04.146Z,0
2016-11-12T02:41:04.221Z,0
2016-11-12T02:42:04.293Z,0
2016-11-12T02:43:04.330Z,0
2016-11-12T02:44:04.399Z,0
2016-11-12T02:45:04.436Z,0
2016-11-12T02:46:04.488Z,0
2016-11-12T02:47:04.575Z,0
2016-11-12T02:48:04.613Z,0
2016-11-12T02:49:04.660Z,0
2016-11-12T02:50:05.042Z,0
2016-11-12T02:51:04.787Z,0
2016-11-12T02:52:04.827Z,0
2016-11-12T02:53:04.891Z,0
2016-11-12T02:54:04.964Z,0
2016-11-12T02:55:05.312Z,0
2016-11-12T02:56:05.044Z,0
2016-11-12T02:57:05.136Z,0
2016-11-12T02:58:05.168Z,0
2016-11-12T02:59:05.518Z,0
2016-11-12T03:00:05.295Z,0
2016-11-12T03:01:05.330Z,0
2016-11-12T03:02:05.411Z,0
2016-11-12T03:03:05.466Z,0
2016-11-12T03:04:05.518Z,0
2016-11-12T03:05:05.538Z,0
2016-11-12T03:06:05.607Z,0
2016-11-12T03:07:05.676Z,0
2016-11-12T03:08:05.714Z,0
2016-11-12T03:09:05.787Z,0
2016-11-12T03:10:05.859Z,0
2016-11-12T03:11:05.897Z,0
2016-11-12T03:12:06.288Z,0
2016-11-12T03:13:06.012Z,0
2016-11-12T03:14:06.353Z,0
2016-11-12T03:15:06.152Z,0
2016-11-12T03:16:06.198Z,0
2016-11-12T03:17:06.235Z,0
2016-11-12T03:18:06.296Z,0
2016-11-12T03:19:06.340Z,0
2016-11-12T03:20:06.418Z,0
2016-11-12T03:21:06.460Z,0
2016-11-12T03:22:06.509Z,0
2016-11-12T03:23:06.578Z,0
2016-11-12T03:24:06.640Z,0
2016-11-12T03:25:06.714Z,0
2016-11-12T03:26:06.726Z,0
2016-11-12T03:27:06.811Z,0
2016-11-12T03:28:06.836Z,0
2016-11-12T03:29:06.896Z,0
2016-11-12T03:30:06.990Z,0
2016-11-12T03:31:07.033Z,0
2016-11-12T03:32:07.096Z,0
2016-11-12T03:33:07.134Z,0
2016-11-12T03:34:07.517Z,0
2016-11-12T03:35:07.237Z,0
2016-11-12T03:36:07.307Z,0
2016-11-12T03:37:07.372Z,0
2016-11-12T03:38:07.441Z,0
2016-11-12T03:39:07.481Z,0
2016-11-12T03:40:07.532Z,0
2016-11-12T03:41:07.585Z,0
2016-11-12T03:42:07.638Z,0
2016-11-12T03:43:07.699Z,0
2016-11-12T03:44:07.751Z,0
2016-11-12T03:45:07.820Z,0
2016-11-12T03:46:07.852Z,0
2016-11-12T03:47:07.925Z,0
2016-11-12T03:48:07.982Z,0
2016-11-12T03:49:08.058Z,0
2016-11-12T03:50:08.087Z,0
2016-11-12T03:51:08.148Z,0
2016-11-12T03:52:08.206Z,0
2016-11-12T03:53:08.258Z,0
2016-11-12T03:54:08.306Z,0
2016-11-12T03:55:08.689Z,0
2016-11-12T03:56:08.430Z,0
2016-11-12T03:57:08.825Z,0
2016-11-12T03:58:08.547Z,0
2016-11-12T03:59:08.571Z,0
2016-11-12T04:00:08.962Z,0
2016-11-12T04:01:08.697Z,0
2016-11-12T04:02:08.771Z,0
2016-11-12T04:03:08.817Z,0
2016-11-12T04:04:08.907Z,0
2016-11-12T04:05:08.922Z,0
2016-11-12T04:06:08.979Z,0
2016-11-12T04:07:09.063Z,0
2016-11-12T04:08:09.108Z,0
2016-11-12T04:09:09.159Z,0
2016-11-12T04:10:09.223Z,0
2016-11-12T04:11:09.295Z,0
2016-11-12T04:12:09.304Z,0
2016-11-12T04:13:09.382Z,0
2016-11-12T04:14:09.442Z,0
2016-11-12T04:15:09.505Z,0
2016-11-12T04:16:09.559Z,0
2016-11-12T04:17:09.608Z,0
2016-11-12T04:18:09.652Z,0
2016-11-12T04:19:09.694Z,0
2016-11-12T04:20:09.777Z,0
2016-11-12T04:21:09.829Z,0
2016-11-12T04:22:09.897Z,0
2016-11-12T04:23:09.927Z,0
2016-11-12T04:24:09.978Z,0
2016-11-12T04:25:10.057Z,0
2016-11-12T04:26:10.113Z,0
2016-11-12T04:27:10.160Z,0
2016-11-12T04:28:10.241Z,0
2016-11-12T04:29:10.264Z,0
2016-11-12T04:30:10.328Z,0
2016-11-12T04:31:10.378Z,0
2016-11-12T04:32:10.456Z,0
2016-11-12T04:33:10.513Z,0
2016-11-12T04:34:10.584Z,0
2016-11-12T04:35:10.911Z,0
2016-11-12T04:36:10.674Z,0
2016-11-12T04:37:10.746Z,0
2016-11-12T04:38:10.792Z,0
2016-11-12T04:39:10.839Z,0
2016-11-12T04:40:10.928Z,0
2016-11-12T04:41:10.957Z,0
2016-11-12T04:42:11.006Z,0
2016-11-12T04:43:11.075Z,0
2016-11-12T04:44:11.132Z,0
2016-11-12T04:45:11.206Z,0
2016-11-12T04:46:11.206Z,0
2016-11-12T04:47:11.281Z,0
2016-11-12T04:48:11.371Z,0
2016-11-12T04:49:11.435Z,0
2016-11-12T04:50:11.467Z,0
2016-11-12T04:51:11.515Z,0
2016-11-12T04:52:11.587Z,0
2016-11-12T04:53:11.623Z,0
2016-11-12T04:54:11.657Z,0
2016-11-12T04:55:11.746Z,0
2016-11-12T04:56:11.810Z,0
2016-11-12T04:57:11.847Z,0
2016-11-12T04:58:11.910Z,0
2016-11-12T04:59:11.988Z,0
2016-11-12T05:00:12.038Z,0
2016-11-12T05:01:12.077Z,0
2016-11-12T05:02:12.118Z,0
2016-11-12T05:03:12.179Z,0
2016-11-12T05:04:12.260Z,0
2016-11-12T05:05:12.599Z,0
2016-11-12T05:06:12.360Z,0
2016-11-12T05:07:12.417Z,0
2016-11-12T05:08:12.756Z,0
2016-11-12T05:09:12.537Z,0
2016-11-12T05:10:12.587Z,0
2016-11-12T05:11:12.660Z,0
2016-11-12T05:12:12.700Z,0
2016-11-12T05:13:12.741Z,0
2016-11-12T05:14:12.812Z,0
2016-11-12T05:15:13.153Z,0
2016-11-12T05:16:12.915Z,0
2016-11-12T05:17:12.963Z,0
2016-11-12T05:18:13.019Z,0
2016-11-12T05:19:13.084Z,0
2016-11-12T05:20:13.143Z,0
2016-11-12T05:21:13.179Z,0
2016-11-12T05:22:13.252Z,0
2016-11-12T05:23:13.315Z,0
2016-11-12T05:24:13.356Z,0
2016-11-12T05:25:13.422Z,0
2016-11-12T05:26:13.811Z,0
2016-11-12T05:27:13.531Z,0
2016-11-12T05:28:13.588Z,0
2016-11-12T05:29:13.656Z,0
2016-11-12T05:30:13.701Z,0
2016-11-12T05:31:13.765Z,0
2016-11-12T05:32:13.814Z,0
2016-11-12T05:33:13.878Z,0
2016-11-12T05:34:13.910Z,0
2016-11-12T05:35:13.981Z,0
2016-11-12T05:36:14.052Z,0
2016-11-12T05:37:14.107Z,0
2016-11-12T05:38:14.151Z,0
2016-11-12T05:39:14.208Z,0
2016-11-12T05:40:14.272Z,0
2016-11-12T05:41:14.330Z,0
2016-11-12T05:42:14.436Z,0
2016-11-12T05:43:14.441Z,0
2016-11-12T05:44:14.519Z,0
2016-11-12T05:45:14.559Z,0
2016-11-12T05:46:14.582Z,0
2016-11-12T05:47:14.644Z,0
2016-11-12T05:48:14.718Z,0
2016-11-12T05:49:14.764Z,0
2016-11-12T05:50:15.120Z,0
2016-11-12T05:51:14.909Z,0
2016-11-12T05:52:14.924Z,0
2016-11-12T05:53:14.977Z,0
2016-11-12T05:54:15.034Z,0
2016-11-12T05:55:15.114Z,0
2016-11-12T05:56:15.171Z,0
2016-11-12T05:57:15.230Z,0
2016-11-12T05:58:15.286Z,0
2016-11-12T05:59:15.339Z,0
2016-11-12T06:00:15.409Z,0
2016-11-12T06:01:15.439Z,0
2016-11-12T06:02:15.514Z,0
2016-11-12T06:03:15.585Z,0
2016-11-12T06:04:15.594Z,0
2016-11-12T06:05:15.989Z,0
2016-11-12T06:06:15.712Z,0
2016-11-12T06:07:15.781Z,0
2016-11-12T06:08:15.828Z,0
2016-11-12T06:09:15.880Z,0
2016-11-12T06:10:15.944Z,0
2016-11-12T06:11:15.996Z,0
2016-11-12T06:12:16.055Z,0
2016-11-12T06:13:16.108Z,0
2016-11-12T06:14:16.169Z,0
2016-11-12T06:15:16.223Z,0
2016-11-12T06:16:16.279Z,0
2016-11-12T06:17:16.330Z,0
2016-11-12T06:18:16.379Z,0
2016-11-12T06:19:16.764Z,0
2016-11-12T06:20:16.521Z,0
2016-11-12T06:21:16.839Z,0
2016-11-12T06:22:16.627Z,0
2016-11-12T06:23:16.694Z,0
2016-11-12T06:24:16.716Z,0
2016-11-12T06:25:16.797Z,0
2016-11-12T06:26:16.850Z,0
2016-11-12T06:27:16.884Z,0
2016-11-12T06:28:16.971Z,0
2016-11-12T06:29:17.025Z,0
2016-11-12T06:30:17.084Z,0
2016-11-12T06:31:17.122Z,0
2016-11-12T06:32:17.191Z,0
2016-11-12T06:33:17.232Z,0
2016-11-12T06:34:17.305Z,0
2016-11-12T06:35:17.351Z,0
2016-11-12T06:36:17.403Z,0
2016-11-12T06:37:17.495Z,0
2016-11-12T06:38:17.537Z,0
2016-11-12T06:39:17.569Z,0
2016-11-12T06:40:17.620Z,0
2016-11-12T06:41:17.693Z,0
2016-11-12T06:42:17.755Z,0
2016-11-12T06:43:17.804Z,0
2016-11-12T06:44:17.859Z,0
2016-11-12T06:45:17.912Z,0
2016-11-12T06:46:17.992Z,0
2016-11-12T06:47:18.039Z,0
2016-11-12T06:48:18.106Z,0
2016-11-12T06:49:18.157Z,0
2016-11-12T06:50:18.194Z,0
2016-11-12T06:51:18.249Z,0
2016-11-12T06:52:18.286Z,0
2016-11-12T06:53:18.360Z,0
2016-11-12T06:54:18.415Z,0
2016-11-12T06:55:18.485Z,0
2016-11-12T06:56:18.557Z,0
2016-11-12T06:57:18.589Z,0
2016-11-12T06:58:18.638Z,0
2016-11-12T06:59:18.698Z,0
2016-11-12T07:00:18.737Z,0
2016-11-12T07:01:18.807Z,0
2016-11-12T07:02:19.155Z,0
2016-11-12T07:03:18.923Z,0
2016-11-12T07:04:18.988Z,0
2016-11-12T07:05:19.054Z,0
2016-11-12T07:06:19.087Z,0
2016-11-12T07:07:19.150Z,0
2016-11-12T07:08:19.178Z,0
2016-11-12T07:09:19.541Z,0
2016-11-12T07:10:19.317Z,0
2016-11-12T07:11:19.373Z,0
2016-11-12T07:12:19.443Z,0
2016-11-12T07:13:19.482Z,5
2016-11-12T07:14:19.542Z,5
2016-11-12T07:15:19.605Z,5
2016-11-12T07:16:19.641Z,5
2016-11-12T07:17:19.696Z,5
2016-11-12T07:18:19.765Z,5
2016-11-12T07:19:19.817Z,5
2016-11-12T07:20:19.845Z,5
2016-11-12T07:21:19.932Z,5
2016-11-12T07:22:19.996Z,5
2016-11-12T07:23:20.065Z,5
2016-11-12T07:24:20.128Z,5
2016-11-12T07:25:20.157Z,5
2016-11-12T07:26:20.214Z,5
2016-11-12T07:27:20.290Z,5
2016-11-12T07:28:20.308Z,5
2016-11-12T07:29:20.386Z,5
2016-11-12T07:30:20.435Z,5
2016-11-12T07:31:20.479Z,5
2016-11-12T07:32:20.519Z,5
2016-11-12T07:33:20.604Z,5
2016-11-12T07:34:20.674Z,5
2016-11-12T07:35:20.712Z,5
2016-11-12T07:36:20.777Z,5
2016-11-12T07:37:20.834Z,5
2016-11-12T07:38:20.911Z,5
2016-11-12T07:39:20.965Z,5
2016-11-12T07:40:21.025Z,5
2016-11-12T07:41:21.042Z,5
2016-11-12T07:42:21.114Z,5
2016-11-12T07:43:21.178Z,5
2016-11-12T07:44:21.237Z,5
2016-11-12T07:45:21.276Z,5
2016-11-12T07:46:21.324Z,5
2016-11-12T07:47:21.404Z,5
2016-11-12T07:48:21.438Z,5
2016-11-12T07:49:21.508Z,5
2016-11-12T07:50:21.578Z,5
2016-11-12T07:51:21.642Z,5
2016-11-12T07:52:21.685Z,5
2016-11-12T07:53:21.742Z,5
2016-11-12T07:54:21.774Z,5
2016-11-12T07:55:21.843Z,10
2016-11-12T07:56:21.914Z,10
2016-11-12T07:57:21.980Z,10
2016-11-12T07:58:22.005Z,10
2016-11-12T07:59:22.058Z,10
2016-11-12T08:00:22.115Z,10
2016-11-12T08:01:22.211Z,10
2016-11-12T08:02:22.238Z,10
2016-11-12T08:03:22.288Z,10
2016-11-12T08:04:22.371Z,10
2016-11-12T08:05:22.404Z,10
2016-11-12T08:06:22.458Z,10
2016-11-12T08:07:22.509Z,10
2016-11-12T08:08:22.565Z,10
2016-11-12T08:09:22.626Z,10
2016-11-12T08:10:22.669Z,10
2016-11-12T08:11:22.762Z,10
2016-11-12T08:12:22.820Z,10
2016-11-12T08:13:22.868Z,15
2016-11-12T08:14:22.937Z,15
2016-11-12T08:15:22.969Z,15
2016-11-12T08:16:23.039Z,15
2016-11-12T08:17:23.079Z,15
2016-11-12T08:18:23.162Z,15
2016-11-12T08:19:23.196Z,15
2016-11-12T08:20:23.237Z,15
2016-11-12T08:21:23.307Z,15
2016-11-12T08:22:23.364Z,15
2016-11-12T08:23:23.427Z,20
2016-11-12T08:24:23.469Z,20
2016-11-12T08:25:23.542Z,20
2016-11-12T08:26:23.615Z,20
2016-11-12T08:27:23.643Z,20
2016-11-12T08:28:23.714Z,20
2016-11-12T08:29:23.771Z,20
2016-11-12T08:30:23.797Z,20
2016-11-12T08:31:23.861Z,20
2016-11-12T08:32:23.912Z,20
2016-11-12T08:33:24.006Z,20
2016-11-12T08:34:24.020Z,20
2016-11-12T08:35:24.097Z,20
2016-11-12T08:36:24.145Z,20
2016-11-12T08:37:24.214Z,20
2016-11-12T08:38:24.361Z,20
2016-11-12T08:39:24.322Z,20
2016-11-12T08:40:24.383Z,25
2016-11-12T08:41:24.419Z,25
2016-11-12T08:42:24.480Z,25
2016-11-12T08:43:24.555Z,25
2016-11-12T08:44:24.618Z,25
2016-11-12T08:45:24.648Z,20
2016-11-12T08:46:24.732Z,20
2016-11-12T08:47:24.788Z,20
2016-11-12T08:48:24.849Z,20
2016-11-12T08:49:24.888Z,20
2016-11-12T08:50:24.941Z,20
2016-11-12T08:51:25.001Z,20
2016-11-12T08:52:25.059Z,20
2016-11-12T08:53:25.122Z,20
2016-11-12T08:54:25.165Z,20
2016-11-12T08:55:25.217Z,20
2016-11-12T08:56:25.285Z,20
2016-11-12T08:57:25.360Z,25
2016-11-12T08:58:25.415Z,25
2016-11-12T08:59:25.452Z,25
2016-11-12T09:00:25.512Z,20
2016-11-12T09:01:25.597Z,20
2016-11-12T09:02:25.625Z,20
2016-11-12T09:03:25.705Z,20
2016-11-12T09:04:25.731Z,20
2016-11-12T09:05:25.815Z,20
2016-11-12T09:06:25.862Z,20
2016-11-12T09:07:25.908Z,20
2016-11-12T09:08:26.307Z,20
2016-11-12T09:09:26.036Z,20
2016-11-12T09:10:26.383Z,20
2016-11-12T09:11:26.134Z,25
2016-11-12T09:12:26.213Z,25
2016-11-12T09:13:26.241Z,25
2016-11-12T09:14:26.298Z,25
2016-11-12T09:15:26.376Z,25
2016-11-12T09:16:26.417Z,25
2016-11-12T09:17:26.506Z,20
2016-11-12T09:18:26.526Z,20
2016-11-12T09:19:26.602Z,20
2016-11-12T09:20:26.638Z,25
2016-11-12T09:21:26.710Z,25
2016-11-12T09:22:26.769Z,25
2016-11-12T09:23:26.815Z,25
2016-11-12T09:24:26.880Z,25
2016-11-12T09:25:26.937Z,25
2016-11-12T09:26:26.980Z,25
2016-11-12T09:27:27.042Z,25
2016-11-12T09:28:27.078Z,25
2016-11-12T09:29:27.164Z,25
2016-11-12T09:30:27.228Z,25
2016-11-12T09:31:27.289Z,25
2016-11-12T09:32:27.354Z,25
2016-11-12T09:33:27.385Z,25
2016-11-12T09:34:27.450Z,25
2016-11-12T09:35:27.479Z,25
2016-11-12T09:36:27.558Z,25
2016-11-12T09:37:27.617Z,25
2016-11-12T09:38:27.667Z,25
2016-11-12T09:39:27.718Z,25
2016-11-12T09:40:27.778Z,25
2016-11-12T09:41:28.058Z,25
2016-11-12T09:42:27.900Z,25
2016-11-12T09:43:27.945Z,25
2016-11-12T09:44:28.014Z,25
2016-11-12T09:45:28.075Z,25
2016-11-12T09:46:28.116Z,25
2016-11-12T09:47:28.175Z,25
2016-11-12T09:48:28.247Z,25
2016-11-12T09:49:28.294Z,25
2016-11-12T09:50:28.390Z,25
2016-11-12T09:51:28.424Z,25
2016-11-12T09:52:28.464Z,25
2016-11-12T09:53:28.537Z,25
2016-11-12T09:54:28.575Z,25
2016-11-12T09:55:28.625Z,25
2016-11-12T09:56:28.685Z,25
2016-11-12T09:57:28.742Z,25
2016-11-12T09:58:29.182Z,25
2016-11-12T09:59:28.845Z,25
2016-11-12T10:00:28.913Z,30
2016-11-12T10:01:28.981Z,30
2016-11-12T10:02:29.061Z,35
2016-11-12T10:03:29.124Z,35
2016-11-12T10:04:29.162Z,35
2016-11-12T10:05:29.220Z,35
2016-11-12T10:06:29.267Z,30
2016-11-12T10:07:29.325Z,30
2016-11-12T10:08:29.375Z,30
2016-11-12T10:09:29.637Z,35
2016-11-12T10:10:29.513Z,40
2016-11-12T10:11:29.550Z,45
2016-11-12T10:12:29.611Z,50
2016-11-12T10:13:29.666Z,50
2016-11-12T10:14:29.721Z,50
2016-11-12T10:15:30.075Z,50
2016-11-12T10:16:29.851Z,45
2016-11-12T10:17:29.893Z,50
2016-11-12T10:18:29.957Z,50
2016-11-12T10:19:30.006Z,40
2016-11-12T10:20:30.086Z,40
2016-11-12T10:21:30.113Z,40
2016-11-12T10:22:30.192Z,40
2016-11-12T10:23:30.210Z,40
2016-11-12T10:24:30.283Z,40
2016-11-12T10:25:30.341Z,40
2016-11-12T10:26:30.421Z,45
2016-11-12T10:27:30.470Z,45
2016-11-12T10:28:30.498Z,45
2016-11-12T10:29:30.585Z,50
2016-11-12T10:30:30.630Z,50
2016-11-12T10:31:30.711Z,55
2016-11-12T10:32:30.751Z,50
2016-11-12T10:33:30.804Z,40
2016-11-12T10:34:30.847Z,40
2016-11-12T10:35:30.927Z,40
2016-11-12T10:36:30.967Z,35
2016-11-12T10:37:31.260Z,30
2016-11-12T10:38:31.311Z,35
2016-11-12T10:39:31.134Z,40
2016-11-12T10:40:31.188Z,40
2016-11-12T10:41:31.248Z,35
2016-11-12T10:42:31.300Z,35
2016-11-12T10:43:31.366Z,35
2016-11-12T10:44:31.432Z,35
2016-11-12T10:45:31.494Z,35
2016-11-12T10:46:31.527Z,30
2016-11-12T10:47:31.605Z,30
2016-11-12T10:48:31.664Z,30
2016-11-12T10:49:31.710Z,35
2016-11-12T10:50:31.760Z,40
2016-11-12T10:51:31.832Z,40
2016-11-12T10:52:31.889Z,40
2016-11-12T10:53:31.926Z,40
2016-11-12T10:54:32.003Z,45
2016-11-12T10:55:32.069Z,50
2016-11-12T10:56:32.117Z,45
2016-11-12T10:57:32.189Z,50
2016-11-12T10:58:32.249Z,50
2016-11-12T10:59:32.294Z,55
2016-11-12T11:00:32.359Z,55
2016-11-12T11:01:32.418Z,60
2016-11-12T11:02:32.455Z,50
2016-11-12T11:03:32.508Z,55
2016-11-12T11:04:32.565Z,50
2016-11-12T11:05:32.620Z,45
2016-11-12T11:06:32.915Z,50
2016-11-12T11:07:32.752Z,55
2016-11-12T11:08:32.793Z,45
2016-11-12T11:09:32.868Z,35
2016-11-12T11:10:32.915Z,25
2016-11-12T11:11:32.966Z,30
2016-11-12T11:12:33.009Z,35
2016-11-12T11:13:33.063Z,40
2016-11-12T11:14:33.154Z,40
2016-11-12T11:15:33.211Z,45
2016-11-12T11:16:33.315Z,40
2016-11-12T11:17:33.337Z,35
2016-11-12T11:18:33.395Z,35
2016-11-12T11:19:33.451Z,40
2016-11-12T11:20:33.473Z,45
2016-11-12T11:21:33.512Z,40
2016-11-12T11:22:33.598Z,40
2016-11-12T11:23:33.667Z,35
2016-11-12T11:24:33.705Z,40
2016-11-12T11:25:33.744Z,40
2016-11-12T11:26:33.817Z,40
2016-11-12T11:27:33.863Z,40
2016-11-12T11:28:33.926Z,35
2016-11-12T11:29:33.985Z,35
2016-11-12T11:30:34.088Z,35
2016-11-12T11:31:34.114Z,35
2016-11-12T11:32:34.154Z,35
2016-11-12T11:33:34.227Z,35
2016-11-12T11:34:34.475Z,35
2016-11-12T11:35:34.542Z,35
2016-11-12T11:36:34.408Z,35
2016-11-12T11:37:34.644Z,35
2016-11-12T11:38:34.508Z,35
2016-11-12T11:39:34.577Z,35
2016-11-12T11:40:34.654Z,35
2016-11-12T11:41:34.661Z,35
2016-11-12T11:42:34.736Z,35
2016-11-12T11:43:34.816Z,35
2016-11-12T11:44:34.859Z,35
2016-11-12T11:45:34.902Z,35
2016-11-12T11:46:34.983Z,35
2016-11-12T11:47:35.036Z,35
2016-11-12T11:48:35.088Z,35
2016-11-12T11:49:35.112Z,35
2016-11-12T11:50:35.190Z,35
2016-11-12T11:51:35.269Z,35
2016-11-12T11:52:35.325Z,35
2016-11-12T11:53:35.361Z,35
2016-11-12T11:54:35.443Z,35
2016-11-12T11:55:35.462Z,35
2016-11-12T11:56:35.535Z,35
2016-11-12T11:57:35.590Z,35
2016-11-12T11:58:35.669Z,35
2016-11-12T11:59:35.712Z,35
2016-11-12T12:00:35.777Z,35
2016-11-12T12:01:35.849Z,35
2016-11-12T12:02:35.890Z,35
2016-11-12T12:03:36.143Z,40
2016-11-12T12:04:36.191Z,40
2016-11-12T12:05:36.044Z,35
2016-11-12T12:06:36.330Z,35
2016-11-12T12:07:36.189Z,35
2016-11-12T12:08:36.229Z,35
2016-11-12T12:09:36.285Z,35
2016-11-12T12:10:36.344Z,35
2016-11-12T12:11:36.407Z,35
2016-11-12T12:12:36.434Z,35
2016-11-12T12:13:36.499Z,35
2016-11-12T12:14:36.576Z,35
2016-11-12T12:15:36.599Z,40
2016-11-12T12:16:36.674Z,45
2016-11-12T12:17:36.738Z,55
2016-11-12T12:18:36.789Z,65
2016-11-12T12:19:36.885Z,65
2016-11-12T12:20:36.918Z,60
2016-11-12T12:21:36.973Z,55
2016-11-12T12:22:37.022Z,65
2016-11-12T12:23:37.076Z,85
2016-11-12T12:24:37.154Z,90
2016-11-12T12:25:37.205Z,95
2016-11-12T12:26:37.256Z,100
2016-11-12T12:27:37.309Z,90
2016-11-12T12:28:37.374Z,65
2016-11-12T12:29:37.418Z,85
2016-11-12T12:30:37.477Z,80
2016-11-12T12:31:37.551Z,70
2016-11-12T12:32:37.792Z,60
2016-11-12T12:33:37.650Z,55
2016-11-12T12:34:37.727Z,65
2016-11-12T12:35:37.766Z,60
2016-11-12T12:36:37.841Z,55
2016-11-12T12:37:37.872Z,55
2016-11-12T12:38:37.941Z,60
2016-11-12T12:39:38.004Z,60
2016-11-12T12:40:38.044Z,60
2016-11-12T12:41:38.101Z,60
2016-11-12T12:42:38.188Z,50
2016-11-12T12:43:38.240Z,45
2016-11-12T12:44:38.274Z,50
2016-11-12T12:45:38.669Z,60
2016-11-12T12:46:38.395Z,55
2016-11-12T12:47:38.476Z,55
2016-11-12T12:48:38.527Z,60
2016-11-12T12:49:38.572Z,60
2016-11-12T12:50:38.639Z,60
2016-11-12T12:51:38.678Z,60
2016-11-12T12:52:38.802Z,55
2016-11-12T12:53:38.788Z,30
2016-11-12T12:54:38.876Z,35
2016-11-12T12:55:38.933Z,55
2016-11-12T12:56:38.996Z,50
2016-11-12T12:57:39.066Z,55
2016-11-12T12:58:39.074Z,55
2016-11-12T12:59:39.161Z,65
2016-11-12T13:00:39.195Z,60
2016-11-12T13:01:39.435Z,55
2016-11-12T13:02:39.333Z,60
2016-11-12T13:03:39.376Z,65
2016-11-12T13:04:39.436Z,55
2016-11-12T13:05:39.467Z,55
2016-11-12T13:06:39.536Z,65
2016-11-12T13:07:39.582Z,50
2016-11-12T13:08:39.664Z,55
2016-11-12T13:09:39.744Z,55
2016-11-12T13:10:39.773Z,50
2016-11-12T13:11:39.856Z,50
2016-11-12T13:12:39.899Z,50
2016-11-12T13:13:39.950Z,50
2016-11-12T13:14:39.989Z,55
2016-11-12T13:15:40.066Z,55
2016-11-12T13:16:40.090Z,50
2016-11-12T13:17:40.202Z,45
2016-11-12T13:18:40.246Z,45
2016-11-12T13:19:40.303Z,40
2016-11-12T13:20:40.335Z,35
2016-11-12T13:21:40.407Z,35
2016-11-12T13:22:40.457Z,45
2016-11-12T13:23:40.506Z,55
2016-11-12T13:24:40.574Z,35
2016-11-12T13:25:40.640Z,30
2016-11-12T13:26:40.690Z,35
2016-11-12T13:27:40.751Z,40
2016-11-12T13:28:40.807Z,35
2016-11-12T13:29:40.875Z,35
2016-11-12T13:30:40.935Z,35
2016-11-12T13:31:40.963Z,40
2016-11-12T13:32:41.077Z,25
2016-11-12T13:33:41.091Z,35
2016-11-12T13:34:41.134Z,35
2016-11-12T13:35:41.219Z,35
2016-11-12T13:36:41.248Z,30
2016-11-12T13:37:41.339Z,25
2016-11-12T13:38:41.397Z,40
2016-11-12T13:39:41.419Z,30
2016-11-12T13:40:41.512Z,20
2016-11-12T13:41:41.545Z,25
2016-11-12T13:42:41.632Z,30
2016-11-12T13:43:41.673Z,35
2016-11-12T13:44:41.687Z,20
2016-11-12T13:45:41.768Z,35
2016-11-12T13:46:41.832Z,20
2016-11-12T13:47:41.882Z,25
2016-11-12T13:48:41.940Z,35
2016-11-12T13:49:42.022Z,20
2016-11-12T13:50:42.071Z,20
2016-11-12T13:51:42.128Z,15
2016-11-12T13:52:42.168Z,15
2016-11-12T13:53:42.249Z,20
2016-11-12T13:54:42.291Z,20
2016-11-12T13:55:42.342Z,20
2016-11-12T13:56:42.402Z,15
2016-11-12T13:57:42.455Z,20
2016-11-12T13:58:42.512Z,30
2016-11-12T13:59:42.595Z,20
2016-11-12T14:00:42.614Z,20
2016-11-12T14:01:42.704Z,25
2016-11-12T14:02:42.751Z,30
2016-11-12T14:03:42.813Z,20
2016-11-12T14:04:42.867Z,15
2016-11-12T14:05:42.940Z,30
2016-11-12T14:06:42.967Z,15
2016-11-12T14:07:43.038Z,15
2016-11-12T14:08:43.090Z,15
2016-11-12T14:09:43.170Z,15
2016-11-12T14:10:43.197Z,20
2016-11-12T14:11:43.274Z,15
2016-11-12T14:12:43.316Z,10
2016-11-12T14:13:43.400Z,15
2016-11-12T14:14:43.441Z,15
2016-11-12T14:15:43.484Z,15
2016-11-12T14:16:43.533Z,15
2016-11-12T14:17:43.605Z,15
2016-11-12T14:18:43.635Z,15
2016-11-12T14:19:43.718Z,15
2016-11-12T14:20:43.785Z,10
2016-11-12T14:21:43.814Z,10
2016-11-12T14:22:43.913Z,10
2016-11-12T14:23:43.977Z,10
2016-11-12T14:24:44.001Z,5
2016-11-12T14:25:44.166Z,5
2016-11-12T14:26:44.104Z,5
2016-11-12T14:27:44.181Z,10
2016-11-12T14:28:44.222Z,10
2016-11-12T14:29:44.302Z,5
2016-11-12T14:30:44.323Z,10
2016-11-12T14:31:44.416Z,10
2016-11-12T14:32:44.461Z,10
2016-11-12T14:33:44.504Z,5